createdAt,value
2018-07-13T00:00:15.007Z,62.46
2018-07-13T00:00:40.578Z,62.95
2018-07-13T00:01:06.146Z,62.85
2018-07-13T00:01:31.745Z,62.27
2018-07-13T00:01:57.291Z,62.85
2018-07-13T00:02:22.851Z,62.75
2018-07-13T00:02:48.428Z,62.75
2018-07-13T00:03:14.044Z,62.46
2018-07-13T00:03:39.582Z,62.37
2018-07-13T00:04:05.189Z,62.56
2018-07-13T00:04:30.745Z,62.66
2018-07-13T00:04:56.309Z,62.56
2018-07-13T00:05:21.912Z,62.56
2018-07-13T00:05:47.508Z,62.46
2018-07-13T00:06:13.128Z,62.56
2018-07-13T00:06:38.722Z,62.46
2018-07-13T00:07:04.308Z,62.37
2018-07-13T00:07:29.883Z,62.46
2018-07-13T00:07:55.457Z,62.46
2018-07-13T00:08:21.037Z,62.37
2018-07-13T00:08:46.612Z,62.37
2018-07-13T00:09:12.216Z,62.56
2018-07-13T00:09:37.784Z,62.56
2018-07-13T00:10:03.354Z,62.46
2018-07-13T00:10:28.933Z,62.46
2018-07-13T00:10:54.530Z,62.56
2018-07-13T00:11:20.109Z,62.56
2018-07-13T00:11:45.730Z,62.56
2018-07-13T00:12:11.322Z,62.27
2018-07-13T00:12:36.882Z,62.37
2018-07-13T00:13:02.452Z,62.56
2018-07-13T00:13:28.029Z,62.37
2018-07-13T00:13:53.622Z,62.37
2018-07-13T00:14:19.207Z,62.56
2018-07-13T00:14:44.823Z,62.66
2018-07-13T00:15:10.406Z,62.75
2018-07-13T00:15:35.980Z,62.37
2018-07-13T00:16:01.577Z,62.66
2018-07-13T00:16:27.137Z,62.46
2018-07-13T00:16:52.756Z,62.66
2018-07-13T00:17:18.312Z,62.66
2018-07-13T00:17:43.921Z,62.37
2018-07-13T00:18:09.498Z,62.66
2018-07-13T00:18:35.046Z,62.27
2018-07-13T00:19:00.619Z,62.46
2018-07-13T00:19:26.212Z,62.66
2018-07-13T00:19:51.798Z,62.17
2018-07-13T00:20:17.370Z,62.17
2018-07-13T00:20:42.932Z,62.75
2018-07-13T00:21:08.506Z,62.37
2018-07-13T00:21:34.090Z,62.37
2018-07-13T00:21:59.674Z,62.66
2018-07-13T00:22:25.234Z,62.37
2018-07-13T00:22:50.845Z,62.66
2018-07-13T00:23:16.422Z,62.37
2018-07-13T00:23:41.987Z,62.27
2018-07-13T00:24:07.531Z,62.37
2018-07-13T00:24:33.110Z,62.27
2018-07-13T00:24:58.701Z,62.46
2018-07-13T00:25:24.280Z,62.46
2018-07-13T00:25:49.845Z,62.75
2018-07-13T00:26:15.416Z,62.27
2018-07-13T00:26:40.978Z,62.37
2018-07-13T00:27:06.543Z,62.17
2018-07-13T00:27:32.148Z,62.75
2018-07-13T00:27:57.740Z,62.66
2018-07-13T00:28:23.316Z,62.27
2018-07-13T00:28:48.861Z,62.75
2018-07-13T00:29:14.419Z,62.75
2018-07-13T00:29:40.007Z,62.75
2018-07-13T00:30:05.578Z,62.66
2018-07-13T00:30:31.136Z,62.56
2018-07-13T00:30:56.714Z,62.66
2018-07-13T00:31:22.294Z,62.75
2018-07-13T00:31:47.870Z,62.66
2018-07-13T00:32:13.436Z,62.37
2018-07-13T00:32:39.003Z,62.66
2018-07-13T00:33:04.583Z,62.27
2018-07-13T00:33:30.150Z,62.66
2018-07-13T00:33:55.718Z,62.37
2018-07-13T00:34:21.273Z,62.37
2018-07-13T00:34:46.849Z,62.46
2018-07-13T00:35:12.420Z,62.37
2018-07-13T00:35:38.012Z,62.66
2018-07-13T00:36:03.583Z,62.27
2018-07-13T00:36:29.157Z,62.27
2018-07-13T00:36:54.726Z,62.17
2018-07-13T00:37:20.312Z,62.17
2018-07-13T00:37:45.884Z,62.37
2018-07-13T00:38:11.468Z,62.27
2018-07-13T00:38:37.027Z,62.17
2018-07-13T00:39:02.634Z,62.37
2018-07-13T00:39:28.220Z,62.37
2018-07-13T00:39:53.773Z,62.17
2018-07-13T00:40:19.332Z,62.46
2018-07-13T00:40:44.892Z,62.37
2018-07-13T00:41:10.486Z,62.75
2018-07-13T00:41:36.068Z,62.37
2018-07-13T00:42:01.635Z,62.37
2018-07-13T00:42:27.212Z,62.17
2018-07-13T00:42:52.803Z,62.75
2018-07-13T00:43:18.374Z,62.27
2018-07-13T00:43:43.952Z,62.27
2018-07-13T00:44:09.502Z,62.37
2018-07-13T00:44:35.066Z,62.66
2018-07-13T00:45:00.642Z,62.37
2018-07-13T00:45:26.206Z,62.75
2018-07-13T00:45:51.769Z,62.66
2018-07-13T00:46:17.327Z,62.17
2018-07-13T00:46:42.898Z,62.17
2018-07-13T00:47:08.468Z,62.37
2018-07-13T00:47:34.106Z,62.27
2018-07-13T00:47:59.676Z,62.37
2018-07-13T00:48:25.253Z,62.27
2018-07-13T00:48:50.826Z,62.46
2018-07-13T00:49:16.418Z,62.07
2018-07-13T00:49:42.008Z,62.37
2018-07-13T00:50:07.598Z,62.27
2018-07-13T00:50:33.172Z,62.37
2018-07-13T00:50:58.756Z,62.37
2018-07-13T00:51:24.316Z,62.37
2018-07-13T00:51:49.884Z,62.17
2018-07-13T00:52:15.449Z,62.27
2018-07-13T00:52:41.026Z,62.17
2018-07-13T00:53:06.612Z,62.27
2018-07-13T00:53:32.191Z,62.37
2018-07-13T00:53:57.770Z,61.98
2018-07-13T00:54:23.334Z,61.98
2018-07-13T00:54:48.918Z,62.07
2018-07-13T00:55:14.493Z,62.56
2018-07-13T00:55:40.066Z,61.98
2018-07-13T00:56:05.641Z,61.88
2018-07-13T00:56:31.221Z,62.37
2018-07-13T00:56:56.776Z,62.37
2018-07-13T00:57:22.348Z,62.37
2018-07-13T00:57:47.923Z,62.37
2018-07-13T00:58:13.488Z,62.27
2018-07-13T00:58:39.070Z,62.07
2018-07-13T00:59:04.654Z,62.27
2018-07-13T00:59:30.213Z,62.07
2018-07-13T00:59:55.780Z,61.98
2018-07-13T01:00:21.339Z,62.27
2018-07-13T01:00:46.919Z,62.07
2018-07-13T01:01:12.519Z,62.27
2018-07-13T01:01:38.090Z,62.07
2018-07-13T01:02:03.682Z,61.98
2018-07-13T01:02:29.296Z,61.98
2018-07-13T01:02:54.890Z,62.07
2018-07-13T01:03:20.446Z,61.88
2018-07-13T01:03:46.040Z,62.27
2018-07-13T01:04:11.600Z,62.27
2018-07-13T01:04:37.172Z,62.27
2018-07-13T01:05:02.803Z,62.27
2018-07-13T01:05:28.337Z,62.07
2018-07-13T01:05:53.931Z,62.46
2018-07-13T01:06:19.511Z,62.37
2018-07-13T01:06:45.087Z,62.27
2018-07-13T01:07:10.673Z,62.27
2018-07-13T01:07:36.246Z,62.27
2018-07-13T01:08:01.814Z,62.27
2018-07-13T01:08:27.372Z,62.37
2018-07-13T01:08:52.929Z,62.27
2018-07-13T01:09:18.500Z,62.17
2018-07-13T01:09:44.076Z,62.27
2018-07-13T01:10:09.656Z,62.27
2018-07-13T01:10:35.222Z,62.07
2018-07-13T01:11:00.829Z,62.27
2018-07-13T01:11:26.405Z,62.17
2018-07-13T01:11:51.959Z,62.46
2018-07-13T01:12:17.533Z,62.27
2018-07-13T01:12:43.095Z,62.17
2018-07-13T01:13:08.690Z,62.27
2018-07-13T01:13:34.296Z,62.27
2018-07-13T01:13:59.857Z,62.17
2018-07-13T01:14:25.461Z,62.07
2018-07-13T01:14:51.004Z,61.98
2018-07-13T01:15:16.573Z,62.17
2018-07-13T01:15:42.149Z,61.88
2018-07-13T01:16:07.709Z,62.27
2018-07-13T01:16:33.280Z,62.17
2018-07-13T01:16:58.852Z,62.37
2018-07-13T01:17:24.431Z,62.17
2018-07-13T01:17:50.007Z,62.27
2018-07-13T01:18:15.581Z,62.17
2018-07-13T01:18:41.145Z,62.27
2018-07-13T01:19:06.702Z,62.27
2018-07-13T01:19:32.251Z,62.07
2018-07-13T01:19:57.817Z,62.27
2018-07-13T01:20:23.419Z,62.27
2018-07-13T01:20:48.990Z,62.27
2018-07-13T01:21:14.555Z,61.88
2018-07-13T01:21:40.155Z,62.17
2018-07-13T01:22:05.730Z,62.27
2018-07-13T01:22:31.284Z,62.27
2018-07-13T01:22:56.851Z,61.98
2018-07-13T01:23:22.441Z,62.27
2018-07-13T01:23:48.006Z,61.98
2018-07-13T01:24:13.581Z,62.07
2018-07-13T01:24:39.165Z,62.27
2018-07-13T01:25:04.740Z,62.17
2018-07-13T01:25:30.300Z,61.88
2018-07-13T01:26:39.281Z,62.27
2018-07-13T01:27:42.877Z,62.37
2018-07-13T01:29:50.221Z,61.98
2018-07-13T01:30:15.792Z,62.07
2018-07-13T01:30:41.372Z,62.56
2018-07-13T01:31:06.931Z,62.07
2018-07-13T01:31:32.490Z,62.37
2018-07-13T01:31:58.046Z,62.17
2018-07-13T01:32:23.656Z,61.88
2018-07-13T01:32:49.246Z,62.17
2018-07-13T01:33:14.830Z,61.98
2018-07-13T01:33:40.384Z,62.17
2018-07-13T01:34:05.958Z,62.17
2018-07-13T01:34:31.515Z,62.17
2018-07-13T01:34:57.082Z,61.98
2018-07-13T01:35:22.657Z,62.56
2018-07-13T01:35:48.242Z,62.17
2018-07-13T01:36:13.807Z,62.07
2018-07-13T01:36:39.378Z,62.07
2018-07-13T01:37:04.956Z,62.07
2018-07-13T01:37:30.504Z,62.27
2018-07-13T01:37:56.108Z,62.56
2018-07-13T01:38:21.638Z,62.17
2018-07-13T01:38:47.207Z,62.07
2018-07-13T01:39:12.807Z,62.07
2018-07-13T01:39:38.353Z,62.17
2018-07-13T01:40:03.922Z,61.98
2018-07-13T01:40:29.472Z,62.17
2018-07-13T01:40:55.031Z,62.17
2018-07-13T01:41:20.644Z,62.37
2018-07-13T01:41:46.201Z,62.37
2018-07-13T01:42:11.760Z,61.88
2018-07-13T01:42:37.332Z,61.88
2018-07-13T01:43:02.893Z,62.07
2018-07-13T01:43:28.445Z,61.88
2018-07-13T01:43:53.997Z,62.17
2018-07-13T01:44:19.565Z,61.88
2018-07-13T01:44:45.139Z,62.17
2018-07-13T01:45:10.731Z,62.27
2018-07-13T01:45:36.332Z,62.17
2018-07-13T01:46:01.916Z,61.98
2018-07-13T01:46:27.470Z,61.88
2018-07-13T01:46:53.044Z,61.88
2018-07-13T01:47:18.610Z,62.07
2018-07-13T01:47:44.169Z,62.27
2018-07-13T01:48:09.726Z,62.17
2018-07-13T01:48:35.309Z,62.37
2018-07-13T01:49:00.857Z,62.37
2018-07-13T01:49:26.451Z,62.27
2018-07-13T01:49:52.044Z,62.07
2018-07-13T01:50:17.594Z,62.46
2018-07-13T01:50:43.170Z,62.37
2018-07-13T01:51:08.740Z,62.07
2018-07-13T01:51:34.303Z,62.37
2018-07-13T01:51:59.924Z,62.07
2018-07-13T01:52:25.502Z,61.98
2018-07-13T01:52:51.067Z,62.17
2018-07-13T01:53:16.626Z,62.17
2018-07-13T01:53:42.209Z,61.88
2018-07-13T01:54:07.823Z,61.98
2018-07-13T01:54:33.384Z,62.17
2018-07-13T01:54:58.953Z,62.07
2018-07-13T01:55:24.524Z,62.07
2018-07-13T01:55:50.083Z,61.88
2018-07-13T01:56:15.684Z,61.79
2018-07-13T01:56:41.216Z,61.88
2018-07-13T01:57:06.781Z,61.79
2018-07-13T01:57:32.357Z,62.07
2018-07-13T01:57:57.932Z,61.98
2018-07-13T01:58:23.507Z,61.88
2018-07-13T01:58:49.079Z,62.07
2018-07-13T01:59:14.657Z,62.07
2018-07-13T01:59:40.236Z,62.07
2018-07-13T02:00:05.776Z,61.88
2018-07-13T02:00:31.356Z,61.88
2018-07-13T02:00:56.945Z,62.07
2018-07-13T02:01:22.500Z,62.07
2018-07-13T02:01:48.068Z,62.07
2018-07-13T02:02:13.621Z,62.07
2018-07-13T02:02:39.190Z,61.88
2018-07-13T02:03:04.756Z,61.98
2018-07-13T02:03:30.329Z,61.79
2018-07-13T02:03:55.893Z,61.98
2018-07-13T02:04:21.457Z,61.79
2018-07-13T02:04:47.057Z,61.88
2018-07-13T02:05:12.619Z,61.98
2018-07-13T02:05:38.194Z,61.88
2018-07-13T02:06:03.772Z,61.88
2018-07-13T02:06:29.318Z,61.79
2018-07-13T02:06:54.914Z,61.98
2018-07-13T02:07:20.472Z,61.98
2018-07-13T02:07:46.029Z,61.88
2018-07-13T02:08:11.605Z,61.88
2018-07-13T02:08:37.175Z,61.79
2018-07-13T02:09:02.742Z,61.98
2018-07-13T02:09:28.288Z,61.79
2018-07-13T02:09:53.884Z,61.88
2018-07-13T02:10:19.428Z,61.88
2018-07-13T02:10:44.999Z,62.17
2018-07-13T02:11:10.591Z,62.07
2018-07-13T02:11:36.139Z,62.17
2018-07-13T02:12:01.714Z,61.88
2018-07-13T02:12:27.301Z,61.98
2018-07-13T02:12:52.861Z,61.98
2018-07-13T02:13:18.499Z,62.07
2018-07-13T02:13:44.014Z,62.07
2018-07-13T02:14:09.610Z,61.88
2018-07-13T02:14:35.176Z,61.79
2018-07-13T02:15:00.735Z,61.88
2018-07-13T02:15:26.307Z,62.07
2018-07-13T02:15:51.855Z,61.88
2018-07-13T02:16:17.420Z,61.88
2018-07-13T02:17:26.224Z,61.79
2018-07-13T02:17:51.831Z,61.98
2018-07-13T02:18:17.397Z,61.79
2018-07-13T02:18:42.975Z,61.88
2018-07-13T02:19:08.526Z,62.17
2018-07-13T02:19:34.096Z,61.79
2018-07-13T02:19:59.670Z,61.88
2018-07-13T02:20:25.235Z,61.88
2018-07-13T02:20:50.837Z,61.88
2018-07-13T02:21:16.420Z,61.79
2018-07-13T02:21:41.977Z,61.79
2018-07-13T02:22:07.546Z,61.88
2018-07-13T02:22:33.101Z,61.88
2018-07-13T02:22:58.671Z,61.88
2018-07-13T02:23:24.241Z,61.88
2018-07-13T02:23:49.812Z,61.98
2018-07-13T02:24:15.388Z,61.79
2018-07-13T02:24:40.945Z,61.88
2018-07-13T02:25:06.567Z,62.07
2018-07-13T02:25:32.121Z,61.98
2018-07-13T02:25:57.698Z,61.79
2018-07-13T02:26:23.286Z,61.88
2018-07-13T02:26:48.834Z,62.17
2018-07-13T02:27:14.400Z,61.88
2018-07-13T02:27:40.016Z,61.79
2018-07-13T02:28:05.573Z,62.17
2018-07-13T02:28:31.131Z,61.79
2018-07-13T02:28:56.718Z,62.07
2018-07-13T02:29:22.343Z,62.07
2018-07-13T02:29:47.899Z,62.17
2018-07-13T02:30:13.485Z,61.88
2018-07-13T02:30:39.037Z,61.98
2018-07-13T02:31:04.610Z,61.98
2018-07-13T02:31:30.192Z,61.98
2018-07-13T02:31:55.829Z,61.98
2018-07-13T02:32:21.317Z,62.07
2018-07-13T02:32:46.900Z,62.17
2018-07-13T02:33:12.502Z,61.98
2018-07-13T02:33:38.083Z,62.17
2018-07-13T02:34:03.663Z,62.17
2018-07-13T02:34:29.236Z,61.98
2018-07-13T02:34:54.813Z,61.98
2018-07-13T02:35:20.407Z,62.17
2018-07-13T02:35:45.977Z,62.07
2018-07-13T02:36:11.541Z,61.98
2018-07-13T02:36:37.109Z,62.07
2018-07-13T02:37:02.674Z,61.98
2018-07-13T02:37:28.232Z,61.98
2018-07-13T02:37:53.822Z,61.98
2018-07-13T02:38:19.368Z,61.98
2018-07-13T02:38:44.932Z,62.27
2018-07-13T02:39:10.594Z,62.17
2018-07-13T02:39:36.058Z,61.98
2018-07-13T02:40:01.665Z,61.98
2018-07-13T02:40:27.207Z,62.07
2018-07-13T02:40:52.787Z,61.98
2018-07-13T02:41:18.360Z,61.98
2018-07-13T02:41:43.930Z,61.98
2018-07-13T02:42:09.499Z,62.07
2018-07-13T02:42:35.104Z,62.07
2018-07-13T02:43:00.666Z,62.17
2018-07-13T02:43:26.237Z,62.17
2018-07-13T02:43:51.812Z,62.07
2018-07-13T02:44:17.408Z,61.98
2018-07-13T02:44:42.964Z,62.17
2018-07-13T02:45:08.533Z,62.17
2018-07-13T02:45:34.089Z,62.17
2018-07-13T02:45:59.666Z,62.17
2018-07-13T02:46:25.236Z,61.98
2018-07-13T02:46:50.808Z,62.17
2018-07-13T02:47:16.412Z,62.17
2018-07-13T02:47:42.007Z,62.17
2018-07-13T02:48:07.575Z,62.17
2018-07-13T02:48:33.180Z,61.98
2018-07-13T02:48:58.789Z,62.17
2018-07-13T02:49:24.368Z,62.17
2018-07-13T02:49:49.933Z,62.17
2018-07-13T02:50:15.485Z,62.17
2018-07-13T02:50:41.046Z,61.98
2018-07-13T02:51:06.607Z,62.37
2018-07-13T02:51:32.197Z,61.98
2018-07-13T02:51:57.741Z,62.17
2018-07-13T02:52:23.295Z,62.17
2018-07-13T02:52:48.861Z,62.17
2018-07-13T02:53:14.415Z,61.98
2018-07-13T02:53:39.998Z,62.17
2018-07-13T02:54:05.560Z,62.17
2018-07-13T02:54:31.121Z,61.98
2018-07-13T02:54:56.694Z,62.17
2018-07-13T02:55:22.280Z,61.98
2018-07-13T02:55:47.867Z,62.17
2018-07-13T02:56:13.457Z,62.17
2018-07-13T02:56:39.017Z,62.17
2018-07-13T02:57:04.587Z,62.07
2018-07-13T02:57:30.160Z,61.88
2018-07-13T02:57:55.731Z,62.17
2018-07-13T02:58:21.288Z,62.17
2018-07-13T02:58:46.867Z,62.07
2018-07-13T02:59:12.439Z,62.27
2018-07-13T02:59:38.008Z,62.17
2018-07-13T03:00:03.601Z,62.17
2018-07-13T03:00:29.184Z,61.98
2018-07-13T03:00:54.750Z,62.17
2018-07-13T03:01:20.327Z,62.37
2018-07-13T03:01:45.885Z,62.17
2018-07-13T03:02:11.450Z,62.27
2018-07-13T03:02:37.009Z,62.17
2018-07-13T03:03:02.591Z,62.17
2018-07-13T03:03:28.195Z,62.17
2018-07-13T03:03:53.765Z,62.17
2018-07-13T03:04:19.324Z,61.79
2018-07-13T03:04:44.902Z,62.27
2018-07-13T03:05:10.472Z,61.79
2018-07-13T03:05:36.051Z,62.46
2018-07-13T03:06:01.630Z,62.46
2018-07-13T03:06:27.180Z,62.17
2018-07-13T03:06:52.776Z,61.98
2018-07-13T03:07:18.349Z,62.07
2018-07-13T03:07:43.904Z,62.07
2018-07-13T03:08:09.452Z,62.37
2018-07-13T03:08:35.046Z,62.17
2018-07-13T03:09:00.637Z,62.17
2018-07-13T03:09:26.215Z,62.17
2018-07-13T03:09:51.782Z,62.17
2018-07-13T03:10:17.352Z,62.17
2018-07-13T03:10:42.928Z,62.27
2018-07-13T03:11:08.470Z,62.17
2018-07-13T03:11:34.076Z,62.27
2018-07-13T03:11:59.648Z,62.17
2018-07-13T03:12:25.229Z,62.27
2018-07-13T03:12:50.796Z,61.88
2018-07-13T03:13:16.393Z,61.98
2018-07-13T03:13:41.943Z,62.17
2018-07-13T03:14:07.498Z,62.27
2018-07-13T03:14:33.067Z,62.27
2018-07-13T03:14:58.639Z,61.88
2018-07-13T03:15:24.194Z,61.98
2018-07-13T03:15:49.762Z,61.3
2018-07-13T03:16:15.355Z,61.4
2018-07-13T03:16:40.935Z,62.07
2018-07-13T03:17:06.502Z,61.79
2018-07-13T03:17:32.062Z,61.98
2018-07-13T03:17:57.654Z,61.98
2018-07-13T03:18:23.221Z,61.98
2018-07-13T03:18:48.796Z,61.88
2018-07-13T03:19:14.366Z,62.27
2018-07-13T03:19:39.957Z,61.88
2018-07-13T03:20:05.516Z,62.17
2018-07-13T03:20:31.090Z,62.37
2018-07-13T03:20:56.652Z,62.17
2018-07-13T03:21:22.231Z,62.27
2018-07-13T03:21:47.814Z,62.17
2018-07-13T03:22:13.417Z,62.07
2018-07-13T03:22:38.934Z,61.88
2018-07-13T03:23:04.492Z,61.88
2018-07-13T03:23:30.090Z,61.79
2018-07-13T03:23:55.659Z,61.79
2018-07-13T03:24:21.255Z,61.79
2018-07-13T03:24:46.867Z,61.98
2018-07-13T03:25:12.438Z,61.98
2018-07-13T03:25:38.012Z,61.98
2018-07-13T03:26:03.586Z,61.98
2018-07-13T03:26:29.158Z,62.17
2018-07-13T03:26:54.711Z,62.27
2018-07-13T03:27:20.288Z,62.07
2018-07-13T03:27:45.831Z,61.98
2018-07-13T03:28:11.409Z,61.88
2018-07-13T03:28:36.974Z,61.79
2018-07-13T03:29:02.540Z,61.88
2018-07-13T03:29:28.149Z,62.07
2018-07-13T03:29:53.731Z,61.98
2018-07-13T03:30:19.286Z,61.88
2018-07-13T03:30:44.880Z,61.88
2018-07-13T03:31:10.450Z,61.88
2018-07-13T03:31:36.044Z,62.07
2018-07-13T03:32:01.611Z,62.17
2018-07-13T03:32:27.162Z,62.17
2018-07-13T03:32:52.727Z,61.79
2018-07-13T03:33:18.277Z,61.4
2018-07-13T03:33:43.846Z,61.88
2018-07-13T03:34:09.411Z,61.79
2018-07-13T03:34:34.971Z,61.79
2018-07-13T03:35:00.538Z,61.4
2018-07-13T03:35:26.095Z,61.4
2018-07-13T03:35:51.652Z,61.49
2018-07-13T03:36:17.195Z,61.59
2018-07-13T03:36:42.758Z,61.79
2018-07-13T03:37:08.324Z,61.88
2018-07-13T03:37:33.894Z,61.98
2018-07-13T03:37:59.462Z,61.21
2018-07-13T03:38:25.065Z,61.88
2018-07-13T03:38:50.650Z,61.79
2018-07-13T03:39:16.242Z,61.79
2018-07-13T03:39:41.846Z,61.98
2018-07-13T03:40:07.409Z,61.79
2018-07-13T03:40:32.966Z,62.07
2018-07-13T03:40:58.544Z,61.21
2018-07-13T03:41:24.117Z,61.98
2018-07-13T03:41:49.672Z,61.88
2018-07-13T03:42:15.255Z,61.59
2018-07-13T03:42:40.820Z,61.79
2018-07-13T03:43:06.389Z,61.59
2018-07-13T03:43:31.961Z,61.69
2018-07-13T03:43:57.590Z,61.49
2018-07-13T03:44:23.114Z,61.4
2018-07-13T03:44:48.684Z,61.4
2018-07-13T03:45:14.242Z,61.49
2018-07-13T03:45:39.811Z,61.4
2018-07-13T03:46:05.383Z,61.4
2018-07-13T03:46:30.959Z,61.79
2018-07-13T03:46:56.536Z,61.88
2018-07-13T03:47:22.098Z,61.21
2018-07-13T03:47:47.658Z,61.4
2018-07-13T03:48:13.241Z,61.49
2018-07-13T03:48:38.843Z,61.49
2018-07-13T03:49:04.418Z,61.59
2018-07-13T03:49:29.982Z,61.4
2018-07-13T03:49:55.548Z,61.49
2018-07-13T03:50:21.116Z,61.4
2018-07-13T03:50:46.705Z,61.21
2018-07-13T03:51:12.257Z,61.49
2018-07-13T03:51:37.863Z,61.49
2018-07-13T03:52:03.405Z,61.4
2018-07-13T03:52:28.955Z,61.59
2018-07-13T03:52:54.537Z,61.49
2018-07-13T03:53:20.116Z,61.59
2018-07-13T03:53:45.694Z,61.49
2018-07-13T03:54:11.298Z,61.59
2018-07-13T03:54:36.827Z,61.59
2018-07-13T03:55:02.429Z,61.49
2018-07-13T03:55:27.981Z,61.4
2018-07-13T03:55:53.542Z,61.4
2018-07-13T03:56:19.130Z,61.59
2018-07-13T03:56:44.707Z,61.49
2018-07-13T03:57:10.308Z,61.4
2018-07-13T03:57:35.881Z,61.49
2018-07-13T03:58:01.462Z,61.59
2018-07-13T03:58:27.052Z,61.59
2018-07-13T03:58:52.626Z,61.4
2018-07-13T03:59:18.182Z,61.59
2018-07-13T03:59:43.728Z,61.49
2018-07-13T04:00:09.323Z,61.59
2018-07-13T04:00:34.975Z,61.4
2018-07-13T04:01:00.459Z,61.59
2018-07-13T04:01:26.027Z,61.49
2018-07-13T04:01:51.572Z,61.4
2018-07-13T04:02:17.149Z,61.59
2018-07-13T04:02:42.704Z,61.49
2018-07-13T04:03:08.296Z,61.4
2018-07-13T04:03:33.882Z,61.69
2018-07-13T04:03:59.466Z,61.4
2018-07-13T04:04:25.031Z,61.4
2018-07-13T04:04:50.620Z,61.49
2018-07-13T04:05:16.223Z,61.59
2018-07-13T04:05:41.796Z,61.4
2018-07-13T04:06:07.408Z,61.59
2018-07-13T04:06:33.032Z,61.59
2018-07-13T04:06:58.577Z,61.69
2018-07-13T04:07:24.117Z,61.49
2018-07-13T04:07:49.692Z,61.4
2018-07-13T04:08:15.241Z,61.59
2018-07-13T04:08:40.823Z,61.49
2018-07-13T04:09:06.400Z,61.69
2018-07-13T04:09:31.956Z,61.59
2018-07-13T04:09:57.527Z,61.49
2018-07-13T04:10:23.129Z,61.69
2018-07-13T04:10:48.690Z,61.59
2018-07-13T04:11:14.240Z,61.59
2018-07-13T04:11:39.816Z,61.69
2018-07-13T04:12:05.378Z,61.59
2018-07-13T04:12:30.960Z,61.49
2018-07-13T04:12:56.534Z,61.59
2018-07-13T04:13:22.134Z,61.4
2018-07-13T04:13:47.712Z,61.59
2018-07-13T04:14:13.281Z,61.49
2018-07-13T04:14:38.890Z,61.59
2018-07-13T04:15:04.462Z,61.49
2018-07-13T04:15:30.025Z,61.59
2018-07-13T04:15:55.618Z,61.59
2018-07-13T04:16:21.193Z,61.59
2018-07-13T04:16:46.750Z,61.79
2018-07-13T04:17:12.323Z,61.59
2018-07-13T04:17:37.909Z,61.49
2018-07-13T04:18:03.460Z,61.59
2018-07-13T04:18:29.020Z,61.59
2018-07-13T04:18:54.578Z,61.69
2018-07-13T04:19:20.149Z,61.59
2018-07-13T04:19:45.717Z,61.4
2018-07-13T04:20:11.314Z,61.59
2018-07-13T04:20:36.860Z,61.59
2018-07-13T04:21:02.422Z,61.4
2018-07-13T04:21:28.004Z,61.79
2018-07-13T04:21:53.555Z,61.69
2018-07-13T04:22:19.134Z,61.88
2018-07-13T04:22:44.730Z,61.59
2018-07-13T04:23:10.288Z,61.4
2018-07-13T04:23:35.855Z,61.59
2018-07-13T04:24:01.478Z,61.59
2018-07-13T04:24:27.000Z,61.4
2018-07-13T04:24:52.551Z,61.3
2018-07-13T04:25:18.106Z,61.4
2018-07-13T04:25:43.678Z,61.49
2018-07-13T04:26:09.255Z,61.59
2018-07-13T04:26:34.826Z,61.59
2018-07-13T04:27:00.388Z,61.79
2018-07-13T04:27:25.980Z,61.79
2018-07-13T04:27:51.551Z,61.59
2018-07-13T04:28:17.106Z,61.4
2018-07-13T04:28:42.698Z,61.69
2018-07-13T04:29:08.274Z,61.79
2018-07-13T04:29:33.845Z,61.79
2018-07-13T04:29:59.421Z,61.69
2018-07-13T04:30:25.004Z,61.49
2018-07-13T04:30:50.585Z,61.69
2018-07-13T04:31:16.168Z,61.4
2018-07-13T04:31:41.728Z,61.4
2018-07-13T04:32:07.284Z,61.88
2018-07-13T04:32:32.887Z,61.49
2018-07-13T04:32:58.462Z,61.49
2018-07-13T04:33:24.041Z,61.4
2018-07-13T04:33:49.618Z,61.59
2018-07-13T04:34:15.225Z,61.4
2018-07-13T04:34:40.745Z,61.79
2018-07-13T04:35:06.324Z,61.79
2018-07-13T04:35:31.894Z,61.69
2018-07-13T04:35:57.461Z,61.69
2018-07-13T04:36:23.018Z,61.69
2018-07-13T04:36:48.637Z,61.49
2018-07-13T04:37:14.198Z,61.49
2018-07-13T04:37:39.770Z,61.4
2018-07-13T04:38:05.366Z,61.69
2018-07-13T04:38:30.979Z,61.69
2018-07-13T04:38:56.634Z,61.59
2018-07-13T04:39:22.202Z,61.4
2018-07-13T04:39:47.775Z,61.59
2018-07-13T04:40:13.340Z,61.79
2018-07-13T04:40:38.933Z,61.79
2018-07-13T04:41:04.520Z,61.79
2018-07-13T04:41:30.088Z,61.79
2018-07-13T04:41:55.667Z,61.4
2018-07-13T04:42:21.266Z,61.4
2018-07-13T04:42:46.824Z,61.79
2018-07-13T04:43:12.394Z,61.79
2018-07-13T04:43:37.987Z,61.69
2018-07-13T04:44:03.562Z,61.98
2018-07-13T04:44:29.136Z,61.79
2018-07-13T04:44:54.709Z,61.79
2018-07-13T04:45:20.306Z,61.69
2018-07-13T04:45:45.886Z,61.79
2018-07-13T04:46:11.460Z,61.59
2018-07-13T04:46:37.048Z,61.69
2018-07-13T04:47:02.612Z,61.79
2018-07-13T04:47:28.180Z,61.69
2018-07-13T04:47:53.741Z,61.79
2018-07-13T04:48:19.333Z,61.79
2018-07-13T04:48:44.936Z,61.79
2018-07-13T04:49:10.512Z,61.79
2018-07-13T04:49:36.084Z,61.69
2018-07-13T04:50:01.690Z,61.79
2018-07-13T04:50:27.275Z,61.59
2018-07-13T04:50:52.832Z,61.79
2018-07-13T04:51:18.414Z,61.3
2018-07-13T04:51:43.979Z,61.49
2018-07-13T04:52:09.537Z,61.69
2018-07-13T04:52:35.104Z,61.79
2018-07-13T04:53:00.683Z,61.69
2018-07-13T04:53:26.239Z,61.79
2018-07-13T04:53:51.818Z,61.79
2018-07-13T04:54:17.385Z,61.79
2018-07-13T04:54:42.968Z,61.79
2018-07-13T04:55:08.557Z,61.69
2018-07-13T04:55:34.128Z,61.79
2018-07-13T04:55:59.708Z,61.4
2018-07-13T04:56:25.269Z,61.4
2018-07-13T04:56:50.843Z,61.69
2018-07-13T04:57:16.426Z,61.79
2018-07-13T04:57:42.006Z,61.59
2018-07-13T04:58:07.586Z,61.59
2018-07-13T04:58:33.230Z,61.69
2018-07-13T04:58:58.797Z,61.59
2018-07-13T04:59:24.349Z,61.79
2018-07-13T04:59:49.902Z,61.69
2018-07-13T05:00:15.500Z,61.69
2018-07-13T05:00:41.112Z,61.79
2018-07-13T05:01:06.660Z,61.59
2018-07-13T05:01:32.239Z,61.59
2018-07-13T05:01:57.789Z,61.79
2018-07-13T05:02:23.365Z,61.79
2018-07-13T05:02:48.933Z,61.69
2018-07-13T05:03:14.571Z,61.79
2018-07-13T05:03:40.178Z,61.79
2018-07-13T05:04:05.744Z,61.69
2018-07-13T05:04:31.324Z,61.69
2018-07-13T05:04:56.873Z,61.59
2018-07-13T05:05:22.474Z,61.69
2018-07-13T05:05:48.034Z,61.79
2018-07-13T05:06:13.612Z,61.69
2018-07-13T05:06:39.166Z,61.69
2018-07-13T05:07:04.728Z,61.69
2018-07-13T05:07:30.281Z,61.3
2018-07-13T05:07:55.847Z,61.69
2018-07-13T05:08:21.429Z,61.59
2018-07-13T05:08:46.994Z,61.69
2018-07-13T05:09:12.577Z,61.4
2018-07-13T05:09:38.129Z,61.69
2018-07-13T05:10:03.680Z,61.79
2018-07-13T05:10:29.253Z,61.79
2018-07-13T05:10:54.844Z,61.69
2018-07-13T05:11:20.475Z,61.59
2018-07-13T05:11:45.977Z,61.69
2018-07-13T05:12:11.591Z,61.59
2018-07-13T05:12:37.186Z,61.69
2018-07-13T05:13:02.761Z,61.69
2018-07-13T05:13:28.388Z,61.59
2018-07-13T05:13:53.958Z,61.4
2018-07-13T05:14:19.573Z,61.3
2018-07-13T05:14:45.203Z,61.4
2018-07-13T05:15:10.899Z,61.21
2018-07-13T05:15:36.449Z,61.36
2018-07-13T05:16:02.134Z,61.49
2018-07-13T05:16:27.904Z,61.49
2018-07-13T05:16:53.511Z,61.59
2018-07-13T05:17:19.050Z,61.49
2018-07-13T05:17:44.742Z,61.49
2018-07-13T05:18:10.283Z,61.3
2018-07-13T05:18:35.868Z,61.11
2018-07-13T05:19:01.586Z,61.3
2018-07-13T05:19:27.147Z,61.3
2018-07-13T05:19:52.739Z,61.3
2018-07-13T05:20:18.467Z,61.4
2018-07-13T05:20:44.093Z,61.3
2018-07-13T05:21:09.778Z,61.4
2018-07-13T05:21:35.398Z,61.4
2018-07-13T05:22:00.929Z,61.49
2018-07-13T05:22:26.471Z,61.59
2018-07-13T05:22:52.159Z,61.49
2018-07-13T05:23:17.696Z,61.49
2018-07-13T05:23:43.278Z,61.49
2018-07-13T05:24:08.836Z,61.49
2018-07-13T05:24:34.479Z,61.49
2018-07-13T05:25:00.083Z,61.69
2018-07-13T05:25:25.669Z,61.11
2018-07-13T05:25:51.282Z,61.21
2018-07-13T05:26:16.855Z,61.4
2018-07-13T05:26:42.463Z,61.3
2018-07-13T05:27:08.009Z,61.69
2018-07-13T05:27:33.607Z,61.3
2018-07-13T05:27:59.310Z,61.69
2018-07-13T05:28:24.814Z,61.59
2018-07-13T05:28:50.364Z,61.69
2018-07-13T05:29:15.982Z,61.4
2018-07-13T05:29:41.559Z,61.3
2018-07-13T05:30:07.106Z,61.49
2018-07-13T05:30:32.690Z,61.49
2018-07-13T05:30:58.348Z,61.49
2018-07-13T05:31:24.013Z,61.3
2018-07-13T05:31:49.698Z,61.4
2018-07-13T05:32:15.276Z,61.49
2018-07-13T05:32:40.831Z,61.49
2018-07-13T05:33:06.408Z,61.69
2018-07-13T05:33:31.974Z,61.49
2018-07-13T05:33:57.506Z,61.49